Time;durP1;ratioP1;P1;durP2;ratioP2;P2;SDS_P1;SDS_P2;PMS_P1;PMS_P2;Temp;Humidity;BMP_temperature;BMP_pressure;BME280_temperature;BME280_humidity;BME280_pressure;Samples;Min_cycle;Max_cycle;Signal;HPM_P1;HPM_P2
2021/09/27 00:00:29;;;;;;;;;;;;;;;22.54;51.08;95962.81;1049406;28;1665;-59
2021/09/27 00:01:01;;;;;;;;;;;;;;;22.54;51.55;95949.59;1050924;28;1096;-60
2021/09/27 00:01:31;;;;;;;;;;;;;;;22.53;51.51;95959.38;1052629;28;811;-60
2021/09/27 00:02:01;;;;;;;;;;;;;;;22.54;51.43;95952.25;1052373;28;1076;-60
2021/09/27 00:02:32;;;;;;;;;;;;;;;22.54;51.07;95960.97;1048606;28;951;-60
2021/09/27 00:03:02;;;;;;;;;;;;;;;22.55;51.46;95964.38;1050694;28;1146;-61
2021/09/27 00:03:33;;;;;;;;;;;;;;;22.54;51.40;95953.03;1052757;28;837;-60
2021/09/27 00:04:03;;;;;;;;;;;;;;;22.55;51.41;95954.59;1050053;28;1071;-60
2021/09/27 00:04:34;;;;;;;;;;;;;;;22.54;51.17;95953.03;1049469;28;1213;-60
2021/09/27 00:05:05;;;;;;;;;;;;;;;22.54;51.35;95955.69;1052114;28;1053;-58
2021/09/27 00:05:35;;;;;;;;;;;;;;;22.54;51.33;95953.03;1049486;28;1908;-60
2021/09/27 00:06:06;;;;;;;;;;;;;;;22.53;51.38;95956.72;1050466;28;1163;-60
2021/09/27 00:06:36;;;;;;;;;;;;;;;22.53;51.52;95955.94;1052419;28;1243;-58
2021/09/27 00:07:07;;;;;;;;;;;;;;;22.54;51.42;95946.97;1051991;28;1095;-60
2021/09/27 00:07:37;;;;;;;;;;;;;;;22.54;51.52;95960.16;1048399;28;1122;-62
2021/09/27 00:08:07;;;;;;;;;;;;;;;22.55;51.35;95961.72;1051339;28;1388;-60
2021/09/27 00:08:38;;;;;;;;;;;;;;;22.54;51.46;95957.53;1052550;28;1378;-61
2021/09/27 00:09:08;;;;;;;;;;;;;;;22.54;51.40;95954.88;1049058;28;1102;-58
2021/09/27 00:09:39;;;;;;;;;;;;;;;22.53;51.50;95956.72;1048240;28;823;-59
2021/09/27 00:10:09;;;;;;;;;;;;;;;22.54;51.52;95963.59;1052225;28;1056;-60
2021/09/27 00:10:57;;;;;;;;;;;;;;;22.53;51.31;95962.00;1050641;28;2210;-60
2021/09/27 00:11:27;;;;;;;;;;;;;;;22.55;51.57;95956.44;1042838;28;1595;-62
2021/09/27 00:11:58;;;;;;;;;;;;;;;22.54;51.50;95963.59;1046505;28;1226;-61
2021/09/27 00:12:28;;;;;;;;;;;;;;;22.54;51.51;95957.53;1044743;28;1012;-60
2021/09/27 00:12:58;;;;;;;;;;;;;;;22.55;51.35;95959.09;1046631;28;1041;-61
2021/09/27 00:13:31;;;;;;;;;;;;;;;22.54;51.51;95954.88;1052234;28;1141;-60
2021/09/27 00:14:01;;;;;;;;;;;;;;;22.55;51.50;95959.09;1048109;28;1052;-60
2021/09/27 00:14:31;;;;;;;;;;;;;;;22.54;51.14;95955.69;1043864;28;1170;-59
2021/09/27 00:15:03;;;;;;;;;;;;;;;22.54;51.45;95957.53;1042927;28;1100;-60
2021/09/27 00:15:35;;;;;;;;;;;;;;;22.54;51.47;95955.69;1042742;28;1948;-60
2021/09/27 00:16:05;;;;;;;;;;;;;;;22.54;51.58;95960.97;1046667;28;1948;-59
2021/09/27 00:16:36;;;;;;;;;;;;;;;22.55;51.50;95959.09;1052460;28;1294;-60
2021/09/27 00:17:07;;;;;;;;;;;;;;;22.54;51.55;95963.59;1052720;28;1111;-59
2021/09/27 00:17:37;;;;;;;;;;;;;;;22.54;51.04;95960.97;1049237;28;1142;-60
2021/09/27 00:18:08;;;;;;;;;;;;;;;22.54;51.29;95958.31;1048524;28;1053;-59
2021/09/27 00:18:38;;;;;;;;;;;;;;;22.54;51.44;95963.59;1049234;28;1054;-60
2021/09/27 00:19:08;;;;;;;;;;;;;;;22.54;51.50;95960.16;1048009;28;1053;-60
2021/09/27 00:19:39;;;;;;;;;;;;;;;22.54;51.13;95957.53;1049055;28;863;-59
2021/09/27 00:20:09;;;;;;;;;;;;;;;22.54;51.65;95955.69;1050746;28;1967;-59
2021/09/27 00:20:40;;;;;;;;;;;;;;;22.54;51.15;95963.59;1049125;28;1692;-58
2021/09/27 00:21:24;;;;;;;;;;;;;;;22.55;51.37;95964.38;1045945;28;1885;-60
2021/09/27 00:21:55;;;;;;;;;;;;;;;22.55;51.31;95959.09;1048788;28;1053;-58
2021/09/27 00:22:26;;;;;;;;;;;;;;;22.54;51.42;95960.97;1047165;28;1443;-60
2021/09/27 00:22:56;;;;;;;;;;;;;;;22.55;51.44;95956.44;1046992;28;945;-59
2021/09/27 00:23:27;;;;;;;;;;;;;;;22.54;51.17;95955.69;1051489;28;2026;-60
2021/09/27 00:23:58;;;;;;;;;;;;;;;22.54;51.37;95952.25;1051964;28;1573;-60
2021/09/27 00:24:28;;;;;;;;;;;;;;;22.54;51.60;95957.53;1050827;28;1145;-59
2021/09/27 00:24:58;;;;;;;;;;;;;;;22.54;51.16;95957.53;1052996;28;1068;-60
2021/09/27 00:25:29;;;;;;;;;;;;;;;22.55;51.36;95957.25;1051663;28;1236;-60
2021/09/27 00:25:59;;;;;;;;;;;;;;;22.54;51.30;95960.97;1051221;28;1080;-58
2021/09/27 00:26:30;;;;;;;;;;;;;;;22.54;51.47;95953.03;1052068;28;1871;-60
2021/09/27 00:27:00;;;;;;;;;;;;;;;22.54;51.33;95958.31;1053117;28;1044;-58
2021/09/27 00:27:30;;;;;;;;;;;;;;;22.54;51.45;95955.69;1044707;28;1564;-60
2021/09/27 00:28:01;;;;;;;;;;;;;;;22.54;51.46;95954.88;1045411;28;1061;-59
2021/09/27 00:28:31;;;;;;;;;;;;;;;22.54;51.35;95954.88;1053565;28;967;-60
2021/09/27 00:29:02;;;;;;;;;;;;;;;22.54;51.40;95950.41;1052204;28;1671;-59
2021/09/27 00:29:33;;;;;;;;;;;;;;;22.55;51.32;95948.53;1051853;28;1137;-60
2021/09/27 00:30:04;;;;;;;;;;;;;;;22.54;51.42;95953.03;1051731;28;1115;-60
2021/09/27 00:30:35;;;;;;;;;;;;;;;22.54;51.52;95949.59;1048918;28;1158;-59
2021/09/27 00:31:05;;;;;;;;;;;;;;;22.54;51.37;95958.31;1043668;28;2005;-60
2021/09/27 00:31:35;;;;;;;;;;;;;;;22.53;51.50;95946.16;1045309;28;1519;-60
2021/09/27 00:32:06;;;;;;;;;;;;;;;22.55;51.54;95951.16;1047724;28;1129;-59
2021/09/27 00:32:36;;;;;;;;;;;;;;;22.55;51.27;95954.59;1048607;28;1192;-60
2021/09/27 00:33:07;;;;;;;;;;;;;;;22.55;51.48;95951.94;1050608;28;1012;-60
2021/09/27 00:33:38;;;;;;;;;;;;;;;22.55;51.21;95949.31;1053867;28;772;-59
2021/09/27 00:34:08;;;;;;;;;;;;;;;22.54;51.30;95955.69;1051299;28;1072;-60
2021/09/27 00:34:38;;;;;;;;;;;;;;;22.54;51.47;95953.03;1050448;28;1153;-60
2021/09/27 00:35:09;;;;;;;;;;;;;;;22.55;51.66;95951.16;1051661;28;2121;-59
2021/09/27 00:35:40;;;;;;;;;;;;;;;22.54;51.58;95950.41;1048992;28;1909;-60
2021/09/27 00:36:10;;;;;;;;;;;;;;;22.54;51.64;95947.75;1049433;28;2079;-60
2021/09/27 00:36:41;;;;;;;;;;;;;;;22.54;51.67;95950.41;1057093;28;1182;-60
2021/09/27 00:37:11;;;;;;;;;;;;;;;22.54;51.48;95942.47;1056513;28;1136;-59
2021/09/27 00:37:41;;;;;;;;;;;;;;;22.54;51.46;95947.75;1053030;28;1028;-60
2021/09/27 00:38:12;;;;;;;;;;;;;;;22.54;51.40;95945.09;1055490;28;1058;-59
2021/09/27 00:38:42;;;;;;;;;;;;;;;22.55;51.24;95953.81;1053500;28;1043;-60
2021/09/27 00:39:12;;;;;;;;;;;;;;;22.55;51.29;95946.66;1053927;28;975;-60
2021/09/27 00:39:43;;;;;;;;;;;;;;;22.55;51.25;95951.16;1051753;28;1181;-59
2021/09/27 00:40:14;;;;;;;;;;;;;;;22.56;51.39;95947.47;1053374;28;1121;-60
2021/09/27 00:40:45;;;;;;;;;;;;;;;22.55;51.28;95944.03;1050451;28;1205;-60
2021/09/27 00:41:17;;;;;;;;;;;;;;;22.54;51.38;95953.03;1045988;28;1800;-60
2021/09/27 00:41:47;;;;;;;;;;;;;;;22.54;51.29;95945.09;1041853;28;1041;-60
2021/09/27 00:42:17;;;;;;;;;;;;;;;22.54;51.30;95949.59;1039387;28;1179;-59
2021/09/27 00:42:47;;;;;;;;;;;;;;;22.55;51.41;95949.31;1041452;28;1077;-60
2021/09/27 00:43:18;;;;;;;;;;;;;;;22.55;51.44;95948.53;1047755;28;1213;-59
2021/09/27 00:43:48;;;;;;;;;;;;;;;22.56;51.46;95948.25;1048099;28;1115;-60
2021/09/27 00:44:19;;;;;;;;;;;;;;;22.55;51.57;95948.53;1050071;28;1342;-60
2021/09/27 00:44:49;;;;;;;;;;;;;;;22.55;51.29;95945.88;1049016;28;1411;-58
2021/09/27 00:45:20;;;;;;;;;;;;;;;22.55;51.65;95951.16;1051504;28;1469;-60
2021/09/27 00:45:57;;;;;;;;;;;;;;;22.54;51.48;95947.75;1053253;28;1052;-58
2021/09/27 00:46:27;;;;;;;;;;;;;;;22.55;51.58;95945.88;1049335;28;2019;-59
2021/09/27 00:46:58;;;;;;;;;;;;;;;22.55;51.35;95945.88;1047482;28;1104;-59
2021/09/27 00:47:28;;;;;;;;;;;;;;;22.55;51.40;95943.22;1049112;28;1146;-60
2021/09/27 00:47:58;;;;;;;;;;;;;;;22.56;51.59;95947.47;1047754;28;1658;-58
2021/09/27 00:48:29;;;;;;;;;;;;;;;22.55;51.33;95943.22;1053063;28;1200;-60
2021/09/27 00:49:00;;;;;;;;;;;;;;;22.54;51.38;95947.75;1053012;28;993;-60
2021/09/27 00:49:30;;;;;;;;;;;;;;;22.56;51.64;95942.19;1052976;28;1233;-60
2021/09/27 00:50:00;;;;;;;;;;;;;;;22.54;51.58;95942.47;1049121;28;1176;-59
2021/09/27 00:50:32;;;;;;;;;;;;;;;22.54;51.60;95941.69;1052432;28;1731;-60
2021/09/27 00:51:07;;;;;;;;;;;;;;;22.55;51.63;95943.22;1052883;28;1122;-60
2021/09/27 00:51:41;;;;;;;;;;;;;;;22.54;51.62;95950.41;1051913;28;2237;-59
2021/09/27 00:52:11;;;;;;;;;;;;;;;22.55;51.67;95941.38;1047270;28;1457;-60
2021/09/27 00:52:42;;;;;;;;;;;;;;;22.56;51.54;95939.53;1041390;28;1020;-59
2021/09/27 00:53:15;;;;;;;;;;;;;;;22.55;51.58;95940.59;1044614;28;1166;-59
2021/09/27 00:53:53;;;;;;;;;;;;;;;22.54;51.36;95939.81;1041706;28;1081;-60
2021/09/27 00:54:24;;;;;;;;;;;;;;;22.55;51.26;95932.66;1045896;28;1031;-60
2021/09/27 00:54:55;;;;;;;;;;;;;;;22.54;51.25;95937.19;1039848;28;1059;-61
2021/09/27 00:55:25;;;;;;;;;;;;;;;22.55;51.65;95935.31;1041846;28;1191;-58
2021/09/27 00:55:55;;;;;;;;;;;;;;;22.54;51.52;95933.75;1040160;28;1985;-60
2021/09/27 00:56:30;;;;;;;;;;;;;;;22.55;51.67;95938.75;1043261;28;2030;-60
2021/09/27 00:57:05;;;;;;;;;;;;;;;22.54;51.45;95931.91;1049561;28;1049;-61
2021/09/27 00:57:36;;;;;;;;;;;;;;;22.55;51.57;95936.09;1046199;28;876;-60
2021/09/27 00:58:06;;;;;;;;;;;;;;;22.55;51.64;95936.09;1046690;28;1072;-59
2021/09/27 00:58:37;;;;;;;;;;;;;;;22.55;51.63;95937.94;1044820;28;784;-61
2021/09/27 00:59:07;;;;;;;;;;;;;;;22.54;51.37;95933.75;1040869;28;1129;-59
2021/09/27 00:59:38;;;;;;;;;;;;;;;22.54;51.68;95936.38;1044150;28;1852;-59
2021/09/27 01:00:09;;;;;;;;;;;;;;;22.54;51.59;95929.25;1044230;28;2039;-60
2021/09/27 01:00:40;;;;;;;;;;;;;;;22.54;51.60;95934.53;1044790;28;1559;-60
2021/09/27 01:01:10;;;;;;;;;;;;;;;22.54;51.42;95937.19;1048609;28;1035;-60
2021/09/27 01:01:40;;;;;;;;;;;;;;;22.55;51.51;95937.94;1047638;28;2370;-59
2021/09/27 01:02:11;;;;;;;;;;;;;;;22.54;51.50;95937.19;1044592;28;1392;-60
2021/09/27 01:02:41;;;;;;;;;;;;;;;22.54;51.65;95934.53;1047630;28;882;-59
2021/09/27 01:03:12;;;;;;;;;;;;;;;22.56;51.59;95934.25;1042255;28;1607;-58
2021/09/27 01:03:42;;;;;;;;;;;;;;;22.55;51.70;95936.09;1040741;28;1531;-60
2021/09/27 01:04:13;;;;;;;;;;;;;;;22.54;51.66;95937.19;1048717;28;1083;-60
2021/09/27 01:04:43;;;;;;;;;;;;;;;22.53;51.25;95943.53;1046247;28;1201;-60
2021/09/27 01:05:14;;;;;;;;;;;;;;;22.54;51.42;95931.09;1048818;28;1122;-58
2021/09/27 01:05:46;;;;;;;;;;;;;;;22.53;51.73;95935.59;1048951;28;1049;-60
2021/09/27 01:06:19;;;;;;;;;;;;;;;22.55;51.68;95938.75;1043603;28;2022;-59
2021/09/27 01:06:55;;;;;;;;;;;;;;;22.54;51.69;95936.38;1042695;28;1225;-60
2021/09/27 01:07:31;;;;;;;;;;;;;;;22.54;51.66;95937.19;1050471;28;1095;-60
2021/09/27 01:08:40;;;;;;;;;;;;;;;22.54;51.69;95931.91;1049562;28;1495;-60
2021/09/27 01:09:35;;;;;;;;;;;;;;;22.53;51.39;95935.59;1048424;28;1209;-60
2021/09/27 01:10:18;;;;;;;;;;;;;;;22.53;51.65;95930.31;1048272;28;1360;-60
2021/09/27 01:11:12;;;;;;;;;;;;;;;22.53;51.62;95930.31;1048057;28;1573;-60
2021/09/27 01:11:50;;;;;;;;;;;;;;;22.54;51.50;95939.81;1047061;28;1571;-60
2021/09/27 01:12:43;;;;;;;;;;;;;;;22.54;51.75;95939.81;1047615;28;1151;-59
2021/09/27 01:13:23;;;;;;;;;;;;;;;22.54;51.59;95945.09;1045261;28;1317;-60
2021/09/27 01:14:07;;;;;;;;;;;;;;;22.55;51.47;95935.31;1043631;28;1018;-60
2021/09/27 01:14:51;;;;;;;;;;;;;;;22.54;51.73;95936.38;1035671;28;929;-60
2021/09/27 01:15:32;;;;;;;;;;;;;;;22.54;51.40;95942.47;1045102;28;1917;-60
2021/09/27 01:16:23;;;;;;;;;;;;;;;22.54;51.69;95937.19;1041798;28;1980;-60
2021/09/27 01:17:12;;;;;;;;;;;;;;;22.54;51.65;95936.38;1044617;28;1369;-59
2021/09/27 01:17:48;;;;;;;;;;;;;;;22.55;51.78;95937.94;1048545;28;1146;-60
2021/09/27 01:18:31;;;;;;;;;;;;;;;22.55;51.78;95936.09;1048649;28;1545;-60
2021/09/27 01:19:06;;;;;;;;;;;;;;;22.56;51.59;95944.81;1052792;28;1111;-61
2021/09/27 01:19:49;;;;;;;;;;;;;;;22.54;51.73;95939.03;1044201;28;1587;-59
2021/09/27 01:20:39;;;;;;;;;;;;;;;22.54;51.68;95941.69;1042651;28;1065;-60
2021/09/27 01:21:50;;;;;;;;;;;;;;;22.53;51.59;95943.53;1044157;28;1906;-61
2021/09/27 01:22:40;;;;;;;;;;;;;;;22.54;51.67;95944.31;1043697;28;1350;-60
2021/09/27 01:23:28;;;;;;;;;;;;;;;22.54;51.58;95945.09;1051814;28;1003;-60
2021/09/27 01:24:17;;;;;;;;;;;;;;;22.52;51.81;95939.28;1052186;28;1858;-60
2021/09/27 01:24:54;;;;;;;;;;;;;;;22.54;51.64;95937.19;1052898;28;1029;-60
2021/09/27 01:26:02;;;;;;;;;;;;;;;22.55;51.53;95945.88;1048015;28;2165;-60
2021/09/27 01:26:42;;;;;;;;;;;;;;;22.54;51.60;95942.47;1049332;28;1377;-60
2021/09/27 01:27:31;;;;;;;;;;;;;;;22.55;51.67;95943.22;1053062;28;1472;-60
2021/09/27 01:28:17;;;;;;;;;;;;;;;22.54;51.48;95945.09;1044496;28;1393;-59
2021/09/27 01:28:47;;;;;;;;;;;;;;;22.53;51.67;95942.72;1045713;28;2422;-61
2021/09/27 01:29:26;;;;;;;;;;;;;;;22.53;51.79;95940.88;1042556;28;2181;-60
2021/09/27 01:30:00;;;;;;;;;;;;;;;22.54;51.65;95946.97;1050391;28;1104;-60
2021/09/27 01:30:42;;;;;;;;;;;;;;;22.53;51.81;95934.81;1052519;28;1264;-60
2021/09/27 01:31:32;;;;;;;;;;;;;;;22.54;51.67;95941.69;1049687;28;1186;-60
2021/09/27 01:32:41;;;;;;;;;;;;;;;22.53;51.65;95935.59;1044122;28;1200;-60
2021/09/27 01:33:17;;;;;;;;;;;;;;;22.54;51.57;95937.19;1034079;28;1196;-61
2021/09/27 01:34:18;;;;;;;;;;;;;;;22.54;51.60;95936.38;1034829;28;2461;-60
2021/09/27 01:34:53;;;;;;;;;;;;;;;22.53;51.57;95940.88;1031538;28;1195;-59
2021/09/27 01:35:41;;;;;;;;;;;;;;;22.54;51.81;95931.91;1031757;28;1454;-60
2021/09/27 01:36:32;;;;;;;;;;;;;;;22.54;51.79;95937.19;1032380;28;1112;-60
2021/09/27 01:37:18;;;;;;;;;;;;;;;22.53;51.65;95934.81;1032288;28;1290;-60
2021/09/27 01:38:04;;;;;;;;;;;;;;;22.54;51.50;95941.69;1035411;28;1615;-60
2021/09/27 01:38:34;;;;;;;;;;;;;;;22.54;51.79;95934.53;1032243;28;1370;-58
2021/09/27 01:39:05;;;;;;;;;;;;;;;22.54;51.90;95933.75;1035759;28;2155;-60
2021/09/27 01:39:39;;;;;;;;;;;;;;;22.53;51.43;95935.59;1048941;28;1188;-60
2021/09/27 01:40:15;;;;;;;;;;;;;;;22.54;51.88;95926.63;1045116;28;1037;-61
2021/09/27 01:41:06;;;;;;;;;;;;;;;22.54;51.83;95931.91;1046612;28;1190;-60
2021/09/27 01:41:38;;;;;;;;;;;;;;;22.54;51.86;95929.25;1048568;28;1122;-60
2021/09/27 01:42:09;;;;;;;;;;;;;;;22.54;51.54;95931.91;1042754;28;1509;-59
2021/09/27 01:42:47;;;;;;;;;;;;;;;22.53;51.61;95927.66;1045677;28;1314;-57
2021/09/27 01:43:17;;;;;;;;;;;;;;;22.53;51.76;95926.88;1047036;28;1080;-59
2021/09/27 01:44:08;;;;;;;;;;;;;;;22.53;51.67;95926.88;1047077;28;2120;-59
2021/09/27 01:44:47;;;;;;;;;;;;;;;22.52;51.82;95928.72;1047822;28;992;-60
2021/09/27 01:45:26;;;;;;;;;;;;;;;22.53;51.65;95930.31;1051449;28;1119;-59
2021/09/27 01:46:15;;;;;;;;;;;;;;;22.54;51.79;95933.75;1051255;28;931;-60
2021/09/27 01:46:55;;;;;;;;;;;;;;;22.54;51.87;95934.53;1049776;28;1292;-58
2021/09/27 01:47:31;;;;;;;;;;;;;;;22.52;51.66;95923.44;1045233;28;1217;-60
2021/09/27 01:48:12;;;;;;;;;;;;;;;22.53;51.75;95930.31;1048005;28;1674;-60
2021/09/27 01:48:59;;;;;;;;;;;;;;;22.54;51.81;95929.25;1047308;28;2237;-60
2021/09/27 01:49:29;;;;;;;;;;;;;;;22.53;51.79;95922.38;1048659;28;1142;-60
2021/09/27 01:49:59;;;;;;;;;;;;;;;22.53;51.60;95924.22;1047315;28;1472;-60
2021/09/27 01:50:37;;;;;;;;;;;;;;;22.54;51.87;95925.81;1045370;28;1188;-59
2021/09/27 01:51:12;;;;;;;;;;;;;;;22.52;51.54;95923.44;1049171;28;1080;-60
2021/09/27 01:51:51;;;;;;;;;;;;;;;22.53;51.86;95922.38;1044547;28;2143;-60
2021/09/27 01:52:25;;;;;;;;;;;;;;;22.53;51.88;95918.94;1046071;28;1204;-59
2021/09/27 01:52:56;;;;;;;;;;;;;;;22.53;51.67;95919.75;1043946;28;1080;-58
2021/09/27 01:53:29;;;;;;;;;;;;;;;22.53;51.54;95918.94;1049835;28;1190;-60
2021/09/27 01:54:05;;;;;;;;;;;;;;;22.53;51.52;95922.38;1049902;28;2439;-61
2021/09/27 01:54:42;;;;;;;;;;;;;;;22.54;51.74;95925.81;1045155;28;1094;-60
2021/09/27 01:55:19;;;;;;;;;;;;;;;22.53;51.78;95919.75;1046255;28;1111;-59
2021/09/27 01:55:52;;;;;;;;;;;;;;;22.53;51.74;95919.75;1044374;28;1894;-60
2021/09/27 01:56:26;;;;;;;;;;;;;;;22.53;51.89;95917.09;1046633;28;1189;-60
2021/09/27 01:56:57;;;;;;;;;;;;;;;22.52;51.62;95918.16;1046377;28;1052;-59
2021/09/27 01:57:34;;;;;;;;;;;;;;;22.53;51.81;95918.94;1048845;28;1264;-58
2021/09/27 01:58:15;;;;;;;;;;;;;;;22.53;51.96;95913.66;1046368;28;1009;-60
2021/09/27 01:58:51;;;;;;;;;;;;;;;22.52;51.73;95912.88;1049451;28;2018;-60
2021/09/27 01:59:44;;;;;;;;;;;;;;;22.53;51.96;95919.75;1051674;28;1032;-60
2021/09/27 02:00:15;;;;;;;;;;;;;;;22.54;51.89;95915.25;1048760;28;1098;-60
2021/09/27 02:00:47;;;;;;;;;;;;;;;22.53;51.84;95914.47;1042105;28;1200;-60
2021/09/27 02:01:24;;;;;;;;;;;;;;;22.53;51.79;95911.81;1036285;28;1109;-66
2021/09/27 02:02:02;;;;;;;;;;;;;;;22.54;51.81;95916.06;1033328;28;2485;-59
2021/09/27 02:02:38;;;;;;;;;;;;;;;22.53;51.88;95911.03;1034033;28;1336;-60
2021/09/27 02:03:16;;;;;;;;;;;;;;;22.54;51.88;95916.06;1045661;28;1085;-60
2021/09/27 02:03:51;;;;;;;;;;;;;;;22.54;51.87;95916.06;1043133;28;2146;-59
2021/09/27 02:04:24;;;;;;;;;;;;;;;22.53;51.88;95914.47;1050754;28;1110;-60
2021/09/27 02:05:13;;;;;;;;;;;;;;;22.53;51.94;95919.75;1046496;28;1080;-60
2021/09/27 02:05:49;;;;;;;;;;;;;;;22.54;51.75;95915.25;1044178;28;1368;-60
2021/09/27 02:06:34;;;;;;;;;;;;;;;22.54;51.93;95920.53;1041582;28;1213;-60
2021/09/27 02:07:05;;;;;;;;;;;;;;;22.53;52.03;95914.47;1043649;28;1455;-60
2021/09/27 02:07:37;;;;;;;;;;;;;;;22.53;51.83;95914.47;1038817;28;775;-58
2021/09/27 02:08:12;;;;;;;;;;;;;;;22.53;51.66;95918.94;1042187;28;1162;-59
2021/09/27 02:08:48;;;;;;;;;;;;;;;22.54;51.69;95917.91;1037116;28;1510;-60
2021/09/27 02:09:19;;;;;;;;;;;;;;;22.53;51.59;95919.75;1041753;28;1775;-60
2021/09/27 02:09:52;;;;;;;;;;;;;;;22.53;51.69;95919.75;1041759;28;1112;-60
2021/09/27 02:10:28;;;;;;;;;;;;;;;22.53;51.93;95927.66;1047240;28;1190;-59
2021/09/27 02:11:19;;;;;;;;;;;;;;;22.53;51.79;95919.75;1046202;28;1523;-60
2021/09/27 02:11:53;;;;;;;;;;;;;;;22.54;51.96;95912.63;1040860;28;1139;-60
2021/09/27 02:12:25;;;;;;;;;;;;;;;22.53;51.92;95914.47;1044519;28;1226;-58
2021/09/27 02:13:14;;;;;;;;;;;;;;;22.53;51.88;95916.31;1049618;28;1184;-60
2021/09/27 02:14:03;;;;;;;;;;;;;;;22.54;51.58;95917.91;1045191;28;1450;-60
2021/09/27 02:14:54;;;;;;;;;;;;;;;22.53;51.72;95916.31;1043959;28;1158;-60
2021/09/27 02:15:30;;;;;;;;;;;;;;;22.52;52.01;95912.88;1049133;28;1300;-60
2021/09/27 02:16:06;;;;;;;;;;;;;;;22.54;51.64;95925.81;1045652;28;1065;-59
2021/09/27 02:16:53;;;;;;;;;;;;;;;22.53;51.84;95919.75;1052939;28;1181;-60
2021/09/27 02:17:42;;;;;;;;;;;;;;;22.52;51.96;95917.41;1047196;28;2275;-60
2021/09/27 02:18:22;;;;;;;;;;;;;;;22.53;51.96;95917.09;1046354;28;1154;-58
2021/09/27 02:18:55;;;;;;;;;;;;;;;22.54;51.50;95921.34;1045346;28;2157;-59
2021/09/27 02:19:35;;;;;;;;;;;;;;;22.52;51.51;95912.88;1049242;28;1141;-58
2021/09/27 02:20:28;;;;;;;;;;;;;;;22.53;51.43;95919.75;1050665;28;1435;-59
2021/09/27 02:21:02;;;;;;;;;;;;;;;22.53;51.66;95919.75;1044389;28;1161;-59
2021/09/27 02:21:33;;;;;;;;;;;;;;;22.53;51.61;95918.94;1048852;28;768;-58
2021/09/27 02:22:12;;;;;;;;;;;;;;;22.53;51.93;95919.75;1044205;28;965;-59
2021/09/27 02:22:45;;;;;;;;;;;;;;;22.52;51.68;95915.50;1038107;28;1171;-59
2021/09/27 02:23:15;;;;;;;;;;;;;;;22.52;52.03;95915.50;1041188;28;1593;-59
2021/09/27 02:24:21;;;;;;;;;;;;;;;22.53;51.94;95916.31;1040476;28;2535;-59
2021/09/27 02:24:54;;;;;;;;;;;;;;;22.52;51.62;95918.16;1040732;28;1136;-57
2021/09/27 02:25:32;;;;;;;;;;;;;;;22.52;51.97;95920.03;1040590;28;1142;-60
2021/09/27 02:26:02;;;;;;;;;;;;;;;22.52;51.92;95917.41;1039959;28;1201;-60
2021/09/27 02:26:33;;;;;;;;;;;;;;;22.52;51.97;95920.81;1040010;28;1357;-58
2021/09/27 02:27:03;;;;;;;;;;;;;;;22.52;51.94;95910.22;1036827;28;1164;-57
2021/09/27 02:27:33;;;;;;;;;;;;;;;22.52;51.83;95912.13;1040728;28;1085;-60
2021/09/27 02:28:05;;;;;;;;;;;;;;;22.53;51.95;95918.94;1043974;28;1088;-60
2021/09/27 02:28:35;;;;;;;;;;;;;;;22.52;51.74;95918.16;1044285;28;1642;-59
2021/09/27 02:29:05;;;;;;;;;;;;;;;22.52;52.12;95918.16;1045894;28;2080;-60
2021/09/27 02:29:36;;;;;;;;;;;;;;;22.52;51.95;95918.16;1047095;28;1466;-58
2021/09/27 02:30:07;;;;;;;;;;;;;;;22.53;51.94;95918.94;1048369;28;1140;-59
2021/09/27 02:31:00;;;;;;;;;;;;;;;22.53;51.63;95913.66;1052158;28;1018;-59
2021/09/27 02:31:32;;;;;;;;;;;;;;;22.53;52.01;95914.47;1043489;28;1156;-58
2021/09/27 02:32:09;;;;;;;;;;;;;;;22.53;52.00;95914.47;1051873;28;1052;-59
2021/09/27 02:32:58;;;;;;;;;;;;;;;22.53;51.80;95914.47;1050959;28;1173;-61
2021/09/27 02:33:47;;;;;;;;;;;;;;;22.52;51.71;95912.88;1050364;28;2165;-58
2021/09/27 02:34:27;;;;;;;;;;;;;;;22.53;52.06;95916.31;1050794;28;2486;-59
2021/09/27 02:35:07;;;;;;;;;;;;;;;22.52;52.09;95912.13;1052418;28;998;-59
2021/09/27 02:35:45;;;;;;;;;;;;;;;22.51;51.97;95911.31;1049881;28;1922;-58
2021/09/27 02:36:23;;;;;;;;;;;;;;;22.52;51.83;95912.88;1045504;28;1186;-60
2021/09/27 02:36:53;;;;;;;;;;;;;;;22.52;51.59;95912.88;1045909;28;1057;-60
2021/09/27 02:37:29;;;;;;;;;;;;;;;22.53;51.89;95913.66;1048604;28;1126;-58
2021/09/27 02:38:02;;;;;;;;;;;;;;;22.52;51.80;95912.88;1048441;28;1064;-59
2021/09/27 02:38:35;;;;;;;;;;;;;;;22.53;51.93;95911.03;1047935;28;1619;-57
2021/09/27 02:39:09;;;;;;;;;;;;;;;22.53;51.68;95913.66;1049574;28;2182;-59
2021/09/27 02:39:44;;;;;;;;;;;;;;;22.53;51.84;95914.47;1052944;28;870;-59
2021/09/27 02:40:23;;;;;;;;;;;;;;;22.52;51.93;95914.75;1052021;28;1121;-59
2021/09/27 02:40:58;;;;;;;;;;;;;;;22.52;51.71;95910.22;1050318;28;1364;-59
2021/09/27 02:41:37;;;;;;;;;;;;;;;22.53;51.79;95908.38;1050478;28;1342;-59
2021/09/27 02:42:19;;;;;;;;;;;;;;;22.52;51.89;95912.13;1045432;28;1101;-57
2021/09/27 02:42:53;;;;;;;;;;;;;;;22.52;51.79;95910.22;1043807;28;2440;-60
2021/09/27 02:43:25;;;;;;;;;;;;;;;22.52;51.75;95912.88;1047372;28;933;-60
2021/09/27 02:43:55;;;;;;;;;;;;;;;22.52;51.84;95918.16;1047796;28;2159;-60
2021/09/27 02:44:25;;;;;;;;;;;;;;;22.53;51.71;95909.19;1040000;28;1497;-58
2021/09/27 02:44:56;;;;;;;;;;;;;;;22.52;51.90;95912.13;1043982;28;1427;-59
2021/09/27 02:45:27;;;;;;;;;;;;;;;22.52;51.65;95907.59;1039639;28;1132;-58
2021/09/27 02:45:57;;;;;;;;;;;;;;;22.52;51.91;95915.50;1044441;28;1071;-59
2021/09/27 02:46:29;;;;;;;;;;;;;;;22.52;51.68;95912.88;1051721;28;1379;-59
2021/09/27 02:47:00;;;;;;;;;;;;;;;22.53;51.94;95913.66;1047499;28;1014;-58
2021/09/27 02:47:42;;;;;;;;;;;;;;;22.52;51.83;95915.50;1045938;28;995;-59
2021/09/27 02:48:19;;;;;;;;;;;;;;;22.51;51.55;95913.97;1045777;28;1118;-59
2021/09/27 02:48:56;;;;;;;;;;;;;;;22.52;51.60;95915.50;1041598;28;1621;-60
2021/09/27 02:49:29;;;;;;;;;;;;;;;22.53;51.63;95911.03;1045822;28;2182;-60
2021/09/27 02:49:59;;;;;;;;;;;;;;;22.52;51.91;95912.13;1045191;28;1026;-60
2021/09/27 02:50:30;;;;;;;;;;;;;;;22.52;51.83;95912.13;1045344;28;1590;-60
2021/09/27 02:51:01;;;;;;;;;;;;;;;22.52;51.76;95909.47;1048502;28;1052;-57
2021/09/27 02:51:31;;;;;;;;;;;;;;;22.51;51.90;95911.31;1048546;28;1114;-60
2021/09/27 02:52:02;;;;;;;;;;;;;;;22.52;51.81;95915.50;1048431;28;1103;-60
2021/09/27 02:52:32;;;;;;;;;;;;;;;22.51;51.91;95913.97;1044127;28;800;-58
2021/09/27 02:53:02;;;;;;;;;;;;;;;22.51;51.64;95911.31;1041811;28;1170;-60
2021/09/27 02:53:33;;;;;;;;;;;;;;;22.52;51.58;95912.88;1044597;28;1440;-58
2021/09/27 02:54:04;;;;;;;;;;;;;;;22.52;51.89;95907.59;1048442;28;1123;-60
2021/09/27 02:54:39;;;;;;;;;;;;;;;22.52;51.90;95917.41;1046953;28;2153;-59
2021/09/27 02:55:11;;;;;;;;;;;;;;;22.53;51.84;95913.66;1048398;28;1187;-58
2021/09/27 02:55:42;;;;;;;;;;;;;;;22.52;51.71;95912.88;1048190;28;1909;-60
2021/09/27 02:56:29;;;;;;;;;;;;;;;22.52;51.93;95906.81;1048584;28;1110;-59
2021/09/27 02:57:07;;;;;;;;;;;;;;;22.52;51.99;95915.50;1050414;28;1682;-60
2021/09/27 02:57:37;;;;;;;;;;;;;;;22.52;51.63;95914.75;1048238;28;760;-60
2021/09/27 02:58:15;;;;;;;;;;;;;;;22.52;51.63;95912.88;1045597;28;1092;-59
2021/09/27 02:59:04;;;;;;;;;;;;;;;22.52;51.89;95914.75;1050894;28;1071;-59
2021/09/27 02:59:34;;;;;;;;;;;;;;;22.52;51.77;95912.88;1049181;28;2028;-60
2021/09/27 03:00:09;;;;;;;;;;;;;;;22.52;51.74;95920.03;1052396;28;1773;-58
2021/09/27 03:00:46;;;;;;;;;;;;;;;22.52;51.92;95910.22;1053222;28;1022;-60
2021/09/27 03:01:37;;;;;;;;;;;;;;;22.51;51.82;95906.03;1052786;28;1141;-59
2021/09/27 03:02:13;;;;;;;;;;;;;;;22.51;51.70;95911.31;1051806;28;1208;-59
2021/09/27 03:02:49;;;;;;;;;;;;;;;22.52;51.59;95906.81;1046289;28;1101;-59
2021/09/27 03:03:38;;;;;;;;;;;;;;;22.51;51.70;95911.31;1047058;28;1149;-60
2021/09/27 03:04:11;;;;;;;;;;;;;;;22.51;51.63;95916.59;1052414;28;1251;-59
2021/09/27 03:05:00;;;;;;;;;;;;;;;22.51;51.82;95913.97;1050648;28;2095;-59
2021/09/27 03:05:49;;;;;;;;;;;;;;;22.51;51.73;95908.69;1052759;28;792;-60
2021/09/27 03:06:38;;;;;;;;;;;;;;;22.51;51.68;95913.97;1051066;28;1181;-60
2021/09/27 03:07:24;;;;;;;;;;;;;;;22.51;51.84;95911.31;1052403;28;1084;-60
2021/09/27 03:07:55;;;;;;;;;;;;;;;22.52;51.59;95918.16;1047902;28;1648;-60
2021/09/27 03:08:32;;;;;;;;;;;;;;;22.51;51.71;95903.38;1048234;28;1158;-59
2021/09/27 03:09:21;;;;;;;;;;;;;;;22.51;51.67;95907.88;1044559;28;1073;-60